Time;durP1;ratioP1;P1;durP2;ratioP2;P2;SDS_P1;SDS_P2;PMS_P1;PMS_P2;Temp;Humidity;BMP_temperature;BMP_pressure;BME280_temperature;BME280_humidity;BME280_pressure;Samples;Min_cycle;Max_cycle;Signal;HPM_P1;HPM_P2
2022/02/09 00:00:19;;;;;;;12.02;10.05;;;;;;;;;;2038364;29;20187;-60
2022/02/09 00:01:33;;;;;;;14.52;10.45;;;;;;;;;;2035484;29;20175;-60
2022/02/09 00:02:44;;;;;;;12.25;9.93;;;;;;;;;;2034097;29;20192;-58
2022/02/09 00:04:09;;;;;;;12.25;10.50;;;;;;;;;;2039861;29;20616;-58
2022/02/09 00:07:39;;;;;;;12.88;9.98;;;;;;;;;;2034050;29;20243;-60
2022/02/09 00:08:39;;;;;;;15.13;10.73;;;;;;;;;;2045334;29;20180;-62
2022/02/09 00:09:43;;;;;;;11.27;10.07;;;;;;;;;;2041766;28;20171;-57
2022/02/09 00:10:47;;;;;;;14.32;11.00;;;;;;;;;;2047746;29;20647;-57
2022/02/09 00:12:02;;;;;;;14.73;10.98;;;;;;;;;;2039701;29;20198;-60
2022/02/09 00:15:32;;;;;;;15.93;10.75;;;;;;;;;;2041306;29;20233;-57
2022/02/09 00:17:41;;;;;;;14.35;11.15;;;;;;;;;;2044047;28;20258;-61
2022/02/09 00:19:01;;;;;;;15.85;11.70;;;;;;;;;;2041378;28;20201;-60
2022/02/09 00:22:31;;;;;;;14.57;11.23;;;;;;;;;;2035002;29;20172;-61
2022/02/09 00:30:00;;;;;;;16.17;11.38;;;;;;;;;;2042581;29;20198;-59
2022/02/09 00:41:19;;;;;;;13.07;9.80;;;;;;;;;;2034115;29;20176;-63
2022/02/09 00:42:23;;;;;;;10.90;9.57;;;;;;;;;;2034862;29;20605;-60
2022/02/09 00:43:48;;;;;;;11.77;9.77;;;;;;;;;;2038741;29;20410;-58
2022/02/09 01:32:59;;;;;;;10.50;8.57;;;;;;;;;;2036261;29;20179;-56
2022/02/09 01:33:08;;;;;;;9.85;7.45;;;;;;;;;;2037683;29;20191;-54
2022/02/09 01:40:00;;;;;;;12.25;9.20;;;;;;;;;;2040809;29;20171;-58
2022/02/09 01:56:18;;;;;;;10.77;9.05;;;;;;;;;;2037501;29;20200;-53
2022/02/09 01:57:18;;;;;;;11.70;9.98;;;;;;;;;;2031168;29;20176;-59
2022/02/09 01:58:20;;;;;;;10.80;9.05;;;;;;;;;;2024193;29;20264;-60
2022/02/09 01:59:21;;;;;;;13.38;9.13;;;;;;;;;;2024114;29;20169;-56
2022/02/09 02:00:21;;;;;;;12.85;9.23;;;;;;;;;;2032798;29;20634;-60
2022/02/09 02:01:31;;;;;;;10.73;8.80;;;;;;;;;;2039986;29;20175;-61
2022/02/09 02:02:31;;;;;;;10.10;9.05;;;;;;;;;;2035615;29;20172;-59
2022/02/09 02:03:31;;;;;;;10.30;8.35;;;;;;;;;;2037570;29;20283;-60
2022/02/09 02:04:32;;;;;;;9.77;8.77;;;;;;;;;;2035706;29;20188;-60
2022/02/09 02:05:35;;;;;;;9.88;8.95;;;;;;;;;;2034994;29;20188;-58
2022/02/09 02:06:35;;;;;;;9.60;8.65;;;;;;;;;;2035294;29;20192;-59
2022/02/09 02:07:49;;;;;;;10.23;9.18;;;;;;;;;;2036303;29;20675;-61
2022/02/09 02:08:52;;;;;;;12.18;9.75;;;;;;;;;;2040599;29;20213;-61
2022/02/09 02:09:58;;;;;;;10.90;9.20;;;;;;;;;;2040397;29;20172;-59
2022/02/09 02:11:10;;;;;;;10.68;9.30;;;;;;;;;;2033586;29;20180;-59
2022/02/09 02:12:18;;;;;;;10.15;9.10;;;;;;;;;;2040116;29;20184;-62
2022/02/09 02:14:01;;;;;;;11.93;9.18;;;;;;;;;;2037645;29;20337;-59
2022/02/09 02:15:00;;;;;;;10.93;9.00;;;;;;;;;;2039294;29;20200;-55
2022/02/09 02:18:22;;;;;;;10.13;9.20;;;;;;;;;;2035244;29;20228;-58
2022/02/09 02:20:47;;;;;;;8.88;8.07;;;;;;;;;;2039747;29;20180;-60
2022/02/09 02:25:58;;;;;;;9.80;8.80;;;;;;;;;;2034199;29;20731;-61
2022/02/09 02:28:29;;;;;;;9.95;8.77;;;;;;;;;;2039076;29;20267;-59
2022/02/09 02:29:50;;;;;;;9.50;7.85;;;;;;;;;;2039315;29;20195;-61
2022/02/09 02:47:21;;;;;;;9.75;7.97;;;;;;;;;;2047132;23;20212;-60
2022/02/09 02:58:07;;;;;;;8.55;7.43;;;;;;;;;;2047359;29;20194;-54
2022/02/09 03:10:49;;;;;;;8.35;7.65;;;;;;;;;;2049051;28;20175;-56
2022/02/09 03:12:01;;;;;;;9.85;7.47;;;;;;;;;;2042476;29;20188;-56
2022/02/09 03:13:09;;;;;;;7.65;6.95;;;;;;;;;;2044934;29;20159;-58
2022/02/09 03:14:15;;;;;;;7.72;6.95;;;;;;;;;;2042633;29;20177;-60
2022/02/09 03:15:39;;;;;;;6.75;6.22;;;;;;;;;;2049267;28;20569;-54
2022/02/09 03:16:51;;;;;;;7.30;6.70;;;;;;;;;;2041576;29;20279;-57
2022/02/09 03:18:13;;;;;;;7.97;7.18;;;;;;;;;;2049259;29;20538;-47
2022/02/09 03:20:30;;;;;;;7.00;6.43;;;;;;;;;;2046019;29;20592;-53
2022/02/09 03:22:56;;;;;;;7.07;5.97;;;;;;;;;;2048387;29;20175;-57
2022/02/09 03:24:07;;;;;;;6.75;5.95;;;;;;;;;;2040496;29;20175;-56
2022/02/09 03:42:28;;;;;;;8.02;6.50;;;;;;;;;;2049759;29;20186;-57
2022/02/09 03:44:28;;;;;;;7.50;5.63;;;;;;;;;;2051322;29;20195;-61
2022/02/09 03:47:33;;;;;;;5.97;5.47;;;;;;;;;;2036100;29;20338;-58
2022/02/09 03:49:53;;;;;;;5.97;5.40;;;;;;;;;;2050839;28;20214;-58
2022/02/09 03:51:16;;;;;;;6.05;5.55;;;;;;;;;;2051929;28;20179;-59
2022/02/09 03:54:59;;;;;;;6.03;5.53;;;;;;;;;;2047866;29;20202;-54
2022/02/09 03:57:25;;;;;;;5.97;5.55;;;;;;;;;;2047450;29;20584;-54
2022/02/09 03:58:26;;;;;;;5.75;5.28;;;;;;;;;;2046376;28;20211;-56
2022/02/09 03:59:29;;;;;;;5.25;4.88;;;;;;;;;;2044614;29;20173;-59
2022/02/09 04:00:34;;;;;;;5.65;5.25;;;;;;;;;;2046191;29;20171;-57
2022/02/09 04:01:38;;;;;;;6.80;5.85;;;;;;;;;;2049752;29;20175;-60
2022/02/09 04:02:39;;;;;;;5.50;5.10;;;;;;;;;;2050011;29;20181;-58
2022/02/09 04:03:39;;;;;;;5.80;5.40;;;;;;;;;;2051048;29;20178;-60
2022/02/09 04:04:39;;;;;;;5.50;4.93;;;;;;;;;;2049151;28;20171;-58
2022/02/09 04:05:40;;;;;;;5.57;4.95;;;;;;;;;;2045056;29;20191;-55
2022/02/09 04:06:40;;;;;;;5.65;5.20;;;;;;;;;;2049212;29;20171;-57
2022/02/09 04:07:40;;;;;;;6.28;5.78;;;;;;;;;;2052368;28;20638;-60
2022/02/09 04:08:51;;;;;;;5.75;5.32;;;;;;;;;;2051780;28;20175;-60
2022/02/09 04:09:56;;;;;;;6.00;5.60;;;;;;;;;;2052421;28;20167;-56
2022/02/09 04:11:23;;;;;;;6.38;5.72;;;;;;;;;;2052232;28;20179;-55
2022/02/09 04:12:34;;;;;;;5.85;5.45;;;;;;;;;;2052789;28;20202;-55
2022/02/09 04:15:29;;;;;;;5.80;5.30;;;;;;;;;;2051829;29;20205;-55
2022/02/09 04:16:32;;;;;;;5.63;5.22;;;;;;;;;;2048086;29;20271;-58
2022/02/09 04:18:55;;;;;;;6.45;5.85;;;;;;;;;;2052475;29;20205;-54
2022/02/09 04:36:39;;;;;;;5.88;5.35;;;;;;;;;;2038138;29;20259;-55
2022/02/09 04:39:04;;;;;;;6.65;6.15;;;;;;;;;;2034958;29;20664;-53
2022/02/09 04:40:10;;;;;;;5.70;5.25;;;;;;;;;;2031495;29;20209;-59
2022/02/09 04:41:28;;;;;;;7.18;6.47;;;;;;;;;;2051774;29;20247;-55
2022/02/09 04:42:45;;;;;;;6.45;6.03;;;;;;;;;;2048985;29;20266;-59
2022/02/09 04:45:29;;;;;;;7.05;6.45;;;;;;;;;;2051837;28;20691;-57
2022/02/09 04:50:38;;;;;;;6.53;5.95;;;;;;;;;;2052184;28;20179;-58
2022/02/09 04:54:45;;;;;;;6.75;6.30;;;;;;;;;;2048776;29;20202;-50
2022/02/09 04:55:51;;;;;;;8.52;6.70;;;;;;;;;;2048207;29;20270;-57
2022/02/09 04:57:03;;;;;;;7.72;6.90;;;;;;;;;;2050870;28;20171;-60
2022/02/09 04:58:11;;;;;;;7.00;6.40;;;;;;;;;;2050717;28;20159;-58
2022/02/09 05:00:37;;;;;;;6.57;6.13;;;;;;;;;;2051226;28;20170;-56
2022/02/09 05:02:13;;;;;;;6.55;6.13;;;;;;;;;;2045291;29;20187;-58
2022/02/09 05:21:46;;;;;;;6.20;5.70;;;;;;;;;;2044168;29;20182;-60
2022/02/09 05:23:36;;;;;;;6.20;5.70;;;;;;;;;;2044224;29;20278;-58
2022/02/09 05:25:39;;;;;;;6.00;5.60;;;;;;;;;;2045470;28;20176;-58
2022/02/09 05:26:42;;;;;;;6.50;6.00;;;;;;;;;;2048362;28;20237;-56
2022/02/09 05:27:59;;;;;;;5.63;5.32;;;;;;;;;;2049154;29;20836;-59
2022/02/09 05:28:59;;;;;;;6.22;5.82;;;;;;;;;;2048823;28;20167;-54
2022/02/09 05:30:05;;;;;;;6.55;5.63;;;;;;;;;;2049976;29;20197;-53
2022/02/09 05:31:07;;;;;;;6.30;5.80;;;;;;;;;;2049524;29;20655;-54
2022/02/09 05:32:08;;;;;;;5.35;4.95;;;;;;;;;;2049964;29;20557;-57
2022/02/09 05:33:08;;;;;;;5.93;5.53;;;;;;;;;;2049838;29;20206;-47
2022/02/09 05:34:11;;;;;;;7.88;6.32;;;;;;;;;;2050600;29;20187;-55
2022/02/09 05:35:12;;;;;;;5.85;5.45;;;;;;;;;;2049745;29;20269;-56
2022/02/09 05:36:12;;;;;;;6.03;5.47;;;;;;;;;;2049569;28;20202;-56
2022/02/09 05:37:12;;;;;;;6.85;6.25;;;;;;;;;;2049177;28;20199;-54
2022/02/09 05:38:13;;;;;;;6.20;5.75;;;;;;;;;;2049781;29;20254;-57
2022/02/09 05:39:14;;;;;;;6.80;6.30;;;;;;;;;;2049390;28;20250;-57
2022/02/09 05:40:14;;;;;;;5.50;5.10;;;;;;;;;;2049201;29;20642;-56
2022/02/09 05:41:14;;;;;;;6.18;5.78;;;;;;;;;;2048970;29;20167;-57
2022/02/09 05:42:14;;;;;;;6.10;5.60;;;;;;;;;;2048936;29;20597;-57
2022/02/09 05:43:15;;;;;;;7.78;5.72;;;;;;;;;;2048887;28;20174;-51
2022/02/09 05:44:15;;;;;;;6.57;6.07;;;;;;;;;;2045808;29;20181;-58
2022/02/09 05:45:17;;;;;;;6.97;6.47;;;;;;;;;;2048727;29;20230;-54
2022/02/09 05:50:16;;;;;;;8.18;5.70;;;;;;;;;;2048864;28;20584;-56
2022/02/09 05:51:23;;;;;;;7.53;6.80;;;;;;;;;;2043463;28;20178;-56
2022/02/09 05:52:32;;;;;;;6.32;5.72;;;;;;;;;;2046514;29;20517;-57
2022/02/09 05:57:49;;;;;;;7.38;6.68;;;;;;;;;;2045176;28;20219;-59
2022/02/09 05:59:02;;;;;;;6.60;6.10;;;;;;;;;;2046977;29;20210;-58
2022/02/09 06:00:03;;;;;;;7.07;6.55;;;;;;;;;;2041277;29;20175;-57
2022/02/09 06:01:04;;;;;;;6.35;5.80;;;;;;;;;;2047727;29;20187;-52
2022/02/09 06:02:05;;;;;;;7.22;6.55;;;;;;;;;;2046599;29;20187;-50
2022/02/09 06:03:05;;;;;;;6.85;6.25;;;;;;;;;;2045077;29;20174;-58
2022/02/09 06:04:05;;;;;;;7.10;6.45;;;;;;;;;;2047066;29;20561;-54
2022/02/09 06:05:06;;;;;;;7.80;6.40;;;;;;;;;;2047688;28;20601;-55
2022/02/09 06:06:07;;;;;;;6.85;6.25;;;;;;;;;;2047367;29;20199;-54
2022/02/09 06:07:08;;;;;;;7.00;6.40;;;;;;;;;;2046474;28;20183;-57
2022/02/09 06:08:08;;;;;;;6.85;6.18;;;;;;;;;;2042009;29;20187;-61
2022/02/09 06:09:09;;;;;;;7.13;6.43;;;;;;;;;;2047261;29;20686;-54
2022/02/09 06:10:16;;;;;;;8.02;6.88;;;;;;;;;;2047138;28;20225;-53
2022/02/09 06:11:26;;;;;;;7.03;6.45;;;;;;;;;;2032605;29;20551;-54
2022/02/09 06:12:38;;;;;;;6.95;6.45;;;;;;;;;;2039269;29;20274;-54
2022/02/09 06:14:59;;;;;;;6.95;6.45;;;;;;;;;;2049494;28;20251;-54
2022/02/09 06:19:56;;;;;;;6.90;6.30;;;;;;;;;;2050294;28;20159;-58
2022/02/09 06:20:58;;;;;;;7.93;7.22;;;;;;;;;;2049132;29;20171;-57
2022/02/09 06:21:59;;;;;;;7.80;6.75;;;;;;;;;;2049621;28;20186;-59
2022/02/09 06:22:59;;;;;;;7.60;7.00;;;;;;;;;;2048560;28;20182;-56
2022/02/09 06:23:59;;;;;;;7.30;6.70;;;;;;;;;;2048208;29;20254;-56
2022/02/09 06:25:00;;;;;;;8.35;7.40;;;;;;;;;;2045957;28;20217;-57
2022/02/09 06:26:01;;;;;;;10.52;7.47;;;;;;;;;;2049307;28;20265;-59
2022/02/09 06:27:01;;;;;;;7.28;6.68;;;;;;;;;;2048100;28;20675;-62
2022/02/09 06:28:02;;;;;;;8.45;7.75;;;;;;;;;;2048242;29;20274;-53
2022/02/09 06:29:02;;;;;;;9.30;8.40;;;;;;;;;;2049282;29;20239;-56
2022/02/09 06:30:02;;;;;;;9.07;8.20;;;;;;;;;;2049513;29;20262;-56
2022/02/09 06:31:03;;;;;;;8.93;7.97;;;;;;;;;;2045932;29;20250;-55
2022/02/09 06:32:08;;;;;;;8.70;7.90;;;;;;;;;;2048955;29;20249;-56
2022/02/09 06:33:08;;;;;;;9.27;8.40;;;;;;;;;;2047067;28;20187;-56
2022/02/09 06:34:12;;;;;;;9.70;8.80;;;;;;;;;;2049635;28;20591;-55
2022/02/09 06:35:12;;;;;;;9.40;8.50;;;;;;;;;;2049359;28;20191;-53
2022/02/09 06:36:14;;;;;;;10.60;9.70;;;;;;;;;;2049154;29;20186;-51
2022/02/09 06:38:16;;;;;;;10.27;9.27;;;;;;;;;;2049109;29;20179;-59
2022/02/09 06:39:17;;;;;;;11.52;10.48;;;;;;;;;;2042974;28;20639;-57
2022/02/09 06:40:20;;;;;;;10.10;9.10;;;;;;;;;;2045559;29;20270;-53
2022/02/09 06:41:20;;;;;;;10.88;9.88;;;;;;;;;;2049805;28;20163;-56
2022/02/09 06:42:24;;;;;;;11.05;9.98;;;;;;;;;;2049036;28;20763;-55
2022/02/09 06:43:24;;;;;;;11.35;10.15;;;;;;;;;;2048498;28;20163;-58
2022/02/09 06:44:25;;;;;;;10.73;9.75;;;;;;;;;;2052607;28;20558;-58
2022/02/09 06:45:29;;;;;;;12.68;9.80;;;;;;;;;;2050743;28;20167;-57
2022/02/09 06:46:35;;;;;;;12.23;10.43;;;;;;;;;;2050176;28;20186;-49
2022/02/09 06:47:37;;;;;;;9.68;8.75;;;;;;;;;;2049540;28;20203;-56
2022/02/09 06:48:37;;;;;;;10.60;9.50;;;;;;;;;;2048820;29;20211;-59
2022/02/09 06:49:40;;;;;;;9.23;8.32;;;;;;;;;;2048743;29;20520;-54
2022/02/09 06:50:48;;;;;;;10.15;9.13;;;;;;;;;;2048381;29;20670;-56
2022/02/09 06:51:49;;;;;;;9.65;8.73;;;;;;;;;;2048824;29;20225;-57
2022/02/09 06:53:00;;;;;;;10.30;9.30;;;;;;;;;;2047474;28;20703;-53
2022/02/09 06:55:19;;;;;;;10.07;9.05;;;;;;;;;;2049230;28;20262;-57
2022/02/09 06:56:40;;;;;;;11.32;10.10;;;;;;;;;;2046272;28;20175;-58
2022/02/09 06:59:11;;;;;;;11.77;10.18;;;;;;;;;;2047168;28;20190;-55
2022/02/09 07:00:12;;;;;;;11.20;10.10;;;;;;;;;;2046885;29;20230;-57
2022/02/09 07:01:13;;;;;;;10.95;9.85;;;;;;;;;;2048898;28;20662;-54
2022/02/09 07:02:13;;;;;;;11.50;10.10;;;;;;;;;;2049412;29;20183;-55
2022/02/09 07:03:13;;;;;;;13.20;10.60;;;;;;;;;;2045805;28;20180;-52
2022/02/09 07:04:14;;;;;;;12.75;10.43;;;;;;;;;;2047686;28;20201;-57
2022/02/09 07:05:14;;;;;;;14.18;11.25;;;;;;;;;;2046539;28;20675;-54
2022/02/09 07:06:15;;;;;;;14.33;11.07;;;;;;;;;;2045999;29;20183;-59
2022/02/09 07:07:15;;;;;;;13.55;11.88;;;;;;;;;;2049182;28;20194;-58
2022/02/09 07:08:15;;;;;;;12.00;10.50;;;;;;;;;;2049147;28;20175;-55
2022/02/09 07:09:16;;;;;;;11.77;9.73;;;;;;;;;;2049086;28;20205;-57
2022/02/09 07:10:16;;;;;;;12.70;10.93;;;;;;;;;;2048396;28;20179;-53
2022/02/09 07:11:17;;;;;;;12.15;10.88;;;;;;;;;;2049731;28;20167;-58
2022/02/09 07:12:18;;;;;;;11.45;9.82;;;;;;;;;;2049254;28;20660;-57
2022/02/09 07:13:19;;;;;;;13.23;10.70;;;;;;;;;;2045450;28;20175;-55
2022/02/09 07:14:23;;;;;;;13.73;10.73;;;;;;;;;;2045805;28;20716;-59
2022/02/09 07:15:31;;;;;;;12.77;11.43;;;;;;;;;;2046917;29;20548;-56
2022/02/09 07:16:31;;;;;;;10.88;9.00;;;;;;;;;;2047064;28;20622;-55
2022/02/09 07:17:32;;;;;;;11.65;10.45;;;;;;;;;;2045081;29;20202;-55
2022/02/09 07:18:32;;;;;;;13.70;11.02;;;;;;;;;;2047595;28;20226;-56
2022/02/09 07:19:33;;;;;;;12.68;10.38;;;;;;;;;;2048199;28;20174;-54
2022/02/09 07:20:43;;;;;;;12.82;10.18;;;;;;;;;;2047942;28;20184;-59
2022/02/09 07:21:43;;;;;;;13.68;11.00;;;;;;;;;;2049336;28;20238;-57
2022/02/09 07:22:44;;;;;;;11.65;10.45;;;;;;;;;;2047073;29;20631;-59
2022/02/09 07:23:49;;;;;;;10.55;9.48;;;;;;;;;;2045911;28;20190;-55
2022/02/09 07:24:51;;;;;;;11.55;10.25;;;;;;;;;;2047403;29;20175;-51
2022/02/09 07:28:03;;;;;;;13.40;10.60;;;;;;;;;;2048386;28;20640;-55
2022/02/09 07:28:33;;;;;;;10.82;8.95;;;;;;;;;;2041253;29;20183;-56
2022/02/09 07:29:33;;;;;;;10.43;9.17;;;;;;;;;;2047056;28;20190;-57
2022/02/09 07:30:35;;;;;;;11.02;8.40;;;;;;;;;;2048815;28;20244;-52
2022/02/09 07:31:35;;;;;;;9.87;8.93;;;;;;;;;;2046526;29;20181;-49
2022/02/09 07:32:35;;;;;;;10.20;9.10;;;;;;;;;;2048776;29;20175;-51
2022/02/09 07:33:40;;;;;;;10.50;8.60;;;;;;;;;;2049727;28;20175;-53
2022/02/09 07:34:40;;;;;;;11.23;8.00;;;;;;;;;;2043898;29;20183;-57
2022/02/09 07:35:40;;;;;;;10.50;9.07;;;;;;;;;;2048475;29;20203;-53
2022/02/09 07:36:45;;;;;;;10.32;9.32;;;;;;;;;;2047833;28;20203;-52
2022/02/09 07:37:45;;;;;;;9.02;8.13;;;;;;;;;;2053231;28;20313;-55
2022/02/09 07:38:45;;;;;;;10.88;9.77;;;;;;;;;;2049027;28;20273;-53
2022/02/09 07:39:45;;;;;;;11.20;9.90;;;;;;;;;;2048930;28;20186;-54
2022/02/09 07:40:46;;;;;;;11.37;9.37;;;;;;;;;;2048186;29;20625;-58
2022/02/09 07:41:48;;;;;;;11.48;9.70;;;;;;;;;;2048572;29;20671;-56
2022/02/09 07:42:53;;;;;;;10.40;9.37;;;;;;;;;;2048488;28;20174;-53
2022/02/09 07:44:14;;;;;;;11.27;10.00;;;;;;;;;;2048397;28;20181;-57
2022/02/09 07:47:39;;;;;;;11.93;10.00;;;;;;;;;;2048775;29;20222;-57
2022/02/09 07:50:09;;;;;;;12.93;10.88;;;;;;;;;;2048331;29;20171;-51
2022/02/09 07:51:26;;;;;;;12.83;10.80;;;;;;;;;;2048784;28;20749;-54
2022/02/09 07:52:26;;;;;;;11.70;10.23;;;;;;;;;;2047283;28;20189;-54
2022/02/09 07:53:36;;;;;;;12.85;10.68;;;;;;;;;;2049278;28;20174;-56
2022/02/09 07:54:37;;;;;;;11.93;10.20;;;;;;;;;;2049257;29;20234;-58
2022/02/09 07:55:38;;;;;;;12.07;10.82;;;;;;;;;;2048782;29;20694;-59
2022/02/09 07:56:39;;;;;;;11.65;10.45;;;;;;;;;;2049926;28;20229;-60
2022/02/09 07:57:40;;;;;;;12.70;11.50;;;;;;;;;;2048622;28;20205;-57
2022/02/09 07:58:40;;;;;;;11.77;10.55;;;;;;;;;;2049169;29;20202;-59
2022/02/09 07:59:40;;;;;;;11.88;9.27;;;;;;;;;;2050747;28;20202;-57
2022/02/09 08:00:41;;;;;;;11.55;10.30;;;;;;;;;;2047236;29;20259;-54
2022/02/09 08:01:41;;;;;;;12.15;10.27;;;;;;;;;;2047907;28;21148;-55
2022/02/09 08:02:42;;;;;;;9.88;8.88;;;;;;;;;;2049528;28;20198;-58
2022/02/09 08:03:42;;;;;;;12.07;10.35;;;;;;;;;;2046908;29;20206;-48
2022/02/09 08:04:42;;;;;;;10.90;9.45;;;;;;;;;;2048343;28;20190;-54
2022/02/09 08:05:42;;;;;;;12.07;10.35;;;;;;;;;;2047044;29;20178;-52
2022/02/09 08:06:43;;;;;;;11.70;10.02;;;;;;;;;;2048804;28;20214;-52
2022/02/09 08:07:43;;;;;;;11.82;9.93;;;;;;;;;;2047982;28;20266;-52
2022/02/09 08:08:45;;;;;;;9.98;8.82;;;;;;;;;;2048712;29;20596;-54
2022/02/09 08:09:47;;;;;;;10.57;9.45;;;;;;;;;;2045340;28;20188;-54
2022/02/09 08:10:54;;;;;;;12.07;10.13;;;;;;;;;;2042419;29;20183;-50
2022/02/09 08:12:13;;;;;;;10.07;9.07;;;;;;;;;;2040845;29;20188;-51
2022/02/09 08:26:43;;;;;;;8.57;7.68;;;;;;;;;;2046614;29;20250;-61
2022/02/09 08:29:03;;;;;;;9.75;8.77;;;;;;;;;;2048653;29;20280;-58
2022/02/09 08:33:30;;;;;;;8.60;7.80;;;;;;;;;;2044222;29;20182;-56
2022/02/09 08:34:30;;;;;;;8.73;7.80;;;;;;;;;;2042094;28;20821;-59
2022/02/09 08:35:30;;;;;;;9.70;8.75;;;;;;;;;;2043696;29;20640;-58
2022/02/09 08:36:30;;;;;;;9.85;8.85;;;;;;;;;;2045595;29;20191;-53
2022/02/09 08:37:31;;;;;;;9.73;8.52;;;;;;;;;;2046462;28;20202;-54
2022/02/09 08:38:31;;;;;;;9.43;8.52;;;;;;;;;;2044256;29;20432;-54
2022/02/09 08:39:32;;;;;;;9.43;8.52;;;;;;;;;;2047616;29;20163;-52
2022/02/09 08:40:32;;;;;;;9.85;8.85;;;;;;;;;;2045586;29;20178;-51
2022/02/09 08:41:33;;;;;;;10.02;9.07;;;;;;;;;;2048164;29;20210;-55
2022/02/09 08:42:33;;;;;;;11.07;9.60;;;;;;;;;;2043664;28;20304;-54
2022/02/09 08:43:34;;;;;;;11.60;10.40;;;;;;;;;;2045497;29;20254;-55
2022/02/09 08:44:34;;;;;;;11.00;9.32;;;;;;;;;;2048452;28;20171;-57
2022/02/09 08:45:35;;;;;;;10.65;9.55;;;;;;;;;;2045917;28;20431;-56
2022/02/09 08:46:35;;;;;;;11.02;10.02;;;;;;;;;;2045815;29;20507;-57
2022/02/09 08:47:35;;;;;;;11.77;10.68;;;;;;;;;;2045511;28;20225;-50
2022/02/09 08:48:36;;;;;;;10.02;9.02;;;;;;;;;;2046430;29;20706;-55
2022/02/09 08:49:36;;;;;;;11.70;10.50;;;;;;;;;;2044702;29;20239;-56
2022/02/09 08:50:36;;;;;;;10.65;9.65;;;;;;;;;;2045537;29;20194;-58
2022/02/09 08:51:36;;;;;;;10.70;9.43;;;;;;;;;;2045812;29;20186;-56
2022/02/09 08:52:37;;;;;;;10.80;9.70;;;;;;;;;;2046657;29;20870;-57
2022/02/09 08:53:37;;;;;;;11.50;10.25;;;;;;;;;;2047107;29;20265;-50
2022/02/09 08:54:37;;;;;;;10.27;9.15;;;;;;;;;;2047947;28;20186;-54
2022/02/09 08:55:38;;;;;;;9.75;8.85;;;;;;;;;;2046081;28;20229;-55
2022/02/09 08:56:38;;;;;;;10.35;9.32;;;;;;;;;;2048958;28;20269;-56
2022/02/09 08:57:38;;;;;;;11.45;10.35;;;;;;;;;;2049903;28;20217;-50
2022/02/09 08:58:39;;;;;;;11.07;10.07;;;;;;;;;;2050371;28;20194;-54
2022/02/09 08:59:39;;;;;;;11.85;10.48;;;;;;;;;;2049438;28;20175;-59
2022/02/09 09:00:40;;;;;;;11.55;10.45;;;;;;;;;;2049834;28;20234;-56
2022/02/09 09:01:48;;;;;;;12.45;11.23;;;;;;;;;;2049148;29;20693;-53
2022/02/09 09:03:02;;;;;;;11.60;9.80;;;;;;;;;;2048059;29;20547;-54
2022/02/09 09:04:13;;;;;;;11.70;10.52;;;;;;;;;;2042944;29;20186;-51
2022/02/09 09:05:21;;;;;;;11.85;10.75;;;;;;;;;;2050156;28;20163;-53
2022/02/09 09:06:25;;;;;;;11.10;10.00;;;;;;;;;;2074363;23;20159;-58
2022/02/09 09:07:32;;;;;;;10.85;9.80;;;;;;;;;;2046324;28;20188;-57
2022/02/09 09:09:58;;;;;;;9.57;8.57;;;;;;;;;;2051801;28;20639;-59
2022/02/09 09:18:48;;;;;;;9.95;9.05;;;;;;;;;;2047992;28;20620;-58
2022/02/09 09:40:28;;;;;;;10.27;9.30;;;;;;;;;;2040954;29;20202;-55
2022/02/09 09:59:57;;;;;;;9.70;8.75;;;;;;;;;;2046486;28;20198;-56
2022/02/09 10:01:51;;;;;;;10.68;8.57;;;;;;;;;;2048607;28;20178;-57
2022/02/09 10:03:12;;;;;;;8.80;8.10;;;;;;;;;;2057536;28;20612;-57
2022/02/09 10:04:21;;;;;;;9.20;8.30;;;;;;;;;;2052027;28;20189;-58
2022/02/09 10:14:13;;;;;;;8.48;7.78;;;;;;;;;;2053181;28;20627;-58
2022/02/09 10:31:04;;;;;;;10.80;9.70;;;;;;;;;;2051607;28;20175;-57
2022/02/09 10:32:34;;;;;;;10.43;9.43;;;;;;;;;;2042522;29;20163;-57
2022/02/09 10:33:27;;;;;;;10.30;9.30;;;;;;;;;;2049874;28;20179;-57
2022/02/09 10:34:35;;;;;;;9.63;8.63;;;;;;;;;;2049681;29;20163;-59
2022/02/09 10:35:40;;;;;;;10.73;9.77;;;;;;;;;;2049422;29;20164;-56
2022/02/09 10:36:50;;;;;;;12.38;11.10;;;;;;;;;;2050350;28;20249;-59
2022/02/09 10:37:51;;;;;;;10.85;9.95;;;;;;;;;;2049964;29;20175;-58
2022/02/09 10:39:12;;;;;;;11.63;10.45;;;;;;;;;;2049708;29;20250;-57
2022/02/09 10:40:35;;;;;;;11.38;10.02;;;;;;;;;;2049809;29;20202;-58
2022/02/09 10:41:43;;;;;;;11.15;10.07;;;;;;;;;;2041967;29;20190;-56
2022/02/09 10:42:53;;;;;;;10.88;9.82;;;;;;;;;;2044325;29;20595;-57
2022/02/09 10:44:07;;;;;;;11.40;10.35;;;;;;;;;;2050547;28;20546;-56
2022/02/09 10:45:29;;;;;;;8.68;7.57;;;;;;;;;;2050292;28;20181;-57
2022/02/09 10:46:30;;;;;;;10.63;9.38;;;;;;;;;;2050228;28;20191;-57
2022/02/09 10:47:31;;;;;;;11.35;10.23;;;;;;;;;;2050159;28;20551;-58
2022/02/09 10:48:38;;;;;;;12.02;10.82;;;;;;;;;;2050001;29;20182;-57
2022/02/09 10:49:39;;;;;;;11.35;10.25;;;;;;;;;;2050186;28;20158;-59
2022/02/09 10:50:39;;;;;;;11.20;10.02;;;;;;;;;;2050134;28;20595;-56
2022/02/09 10:51:52;;;;;;;11.27;10.25;;;;;;;;;;2048402;28;20298;-57
2022/02/09 10:52:53;;;;;;;11.50;10.40;;;;;;;;;;2054616;28;20261;-55
2022/02/09 10:54:14;;;;;;;11.27;10.25;;;;;;;;;;2047466;28;20712;-59
2022/02/09 10:55:26;;;;;;;11.15;10.05;;;;;;;;;;2050142;28;20186;-55
2022/02/09 10:56:28;;;;;;;11.48;10.27;;;;;;;;;;2049479;28;20744;-56
2022/02/09 10:57:28;;;;;;;11.70;10.50;;;;;;;;;;2051033;28;20309;-55
2022/02/09 10:58:31;;;;;;;10.90;9.95;;;;;;;;;;2052513;28;20233;-53
2022/02/09 10:59:34;;;;;;;12.60;10.10;;;;;;;;;;2039006;29;20255;-58
2022/02/09 11:00:35;;;;;;;11.98;10.68;;;;;;;;;;2044846;29;20160;-56
2022/02/09 11:01:36;;;;;;;11.57;10.25;;;;;;;;;;2049143;29;20322;-56
2022/02/09 11:02:36;;;;;;;12.85;11.48;;;;;;;;;;2049022;29;20564;-57
2022/02/09 11:03:37;;;;;;;12.32;11.13;;;;;;;;;;2049718;29;20201;-61
2022/02/09 11:04:40;;;;;;;11.25;10.13;;;;;;;;;;2041277;29;20747;-54
2022/02/09 11:05:43;;;;;;;11.40;10.30;;;;;;;;;;2041401;29;20258;-57
2022/02/09 11:06:44;;;;;;;10.88;9.73;;;;;;;;;;2033657;29;20212;-57
2022/02/09 11:07:45;;;;;;;11.38;10.27;;;;;;;;;;2041503;29;20263;-58
2022/02/09 11:08:45;;;;;;;11.13;10.13;;;;;;;;;;2050184;28;20534;-56
2022/02/09 11:09:47;;;;;;;11.25;10.05;;;;;;;;;;2049928;28;20259;-59
2022/02/09 11:10:50;;;;;;;10.07;9.18;;;;;;;;;;2050459;28;20210;-59
2022/02/09 11:11:52;;;;;;;9.55;8.65;;;;;;;;;;2050637;28;20191;-57
2022/02/09 11:12:53;;;;;;;9.57;8.68;;;;;;;;;;2050754;28;20195;-59
2022/02/09 11:13:54;;;;;;;9.30;8.40;;;;;;;;;;2053084;28;20189;-58
2022/02/09 11:14:54;;;;;;;10.50;8.20;;;;;;;;;;2055882;28;20274;-58
2022/02/09 11:15:54;;;;;;;9.32;8.43;;;;;;;;;;2049855;28;20788;-57
2022/02/09 11:16:59;;;;;;;10.15;9.15;;;;;;;;;;2049416;28;20242;-57
2022/02/09 11:18:00;;;;;;;10.30;9.10;;;;;;;;;;2041667;29;20179;-57
2022/02/09 11:19:00;;;;;;;11.48;10.38;;;;;;;;;;2046243;29;20213;-57
2022/02/09 11:20:01;;;;;;;10.23;9.30;;;;;;;;;;2045050;28;20226;-57
2022/02/09 11:21:03;;;;;;;10.05;9.05;;;;;;;;;;2057546;28;20174;-56
2022/02/09 11:22:05;;;;;;;10.57;9.57;;;;;;;;;;2051114;28;20201;-59
2022/02/09 11:23:07;;;;;;;12.70;9.15;;;;;;;;;;2055518;28;20266;-57
2022/02/09 11:24:18;;;;;;;9.90;8.90;;;;;;;;;;2044146;28;20171;-57
2022/02/09 11:25:26;;;;;;;9.90;9.00;;;;;;;;;;2045975;28;20722;-58
2022/02/09 11:26:59;;;;;;;9.05;8.15;;;;;;;;;;2041984;29;20230;-58
2022/02/09 11:28:18;;;;;;;8.23;7.53;;;;;;;;;;2040322;28;20205;-57
2022/02/09 11:30:39;;;;;;;8.43;7.55;;;;;;;;;;2048301;28;20647;-59
2022/02/09 11:31:58;;;;;;;9.40;8.50;;;;;;;;;;2055937;28;20173;-58
2022/02/09 11:33:08;;;;;;;8.40;7.60;;;;;;;;;;2049143;28;20174;-57
2022/02/09 11:34:17;;;;;;;9.82;8.82;;;;;;;;;;2045630;29;20179;-58
2022/02/09 11:37:48;;;;;;;9.05;8.25;;;;;;;;;;2044884;28;20168;-60
2022/02/09 11:38:53;;;;;;;9.85;8.90;;;;;;;;;;2045147;29;20206;-57
2022/02/09 11:39:56;;;;;;;10.10;9.20;;;;;;;;;;2045640;29;20266;-58
2022/02/09 11:41:11;;;;;;;10.60;9.50;;;;;;;;;;2047809;29;20178;-59
2022/02/09 11:42:25;;;;;;;12.13;9.88;;;;;;;;;;2047962;28;20222;-59
2022/02/09 11:44:49;;;;;;;8.70;7.90;;;;;;;;;;2048196;28;20296;-58
2022/02/09 11:47:30;;;;;;;9.25;8.35;;;;;;;;;;2047170;28;20273;-58
2022/02/09 11:57:00;;;;;;;8.68;7.97;;;;;;;;;;2046696;28;20543;-59
2022/02/09 12:09:35;;;;;;;9.07;8.20;;;;;;;;;;2045515;28;20183;-58
2022/02/09 12:10:42;;;;;;;7.47;6.78;;;;;;;;;;2045977;28;20190;-59
2022/02/09 12:11:49;;;;;;;7.85;7.15;;;;;;;;;;2046563;28;20189;-59
2022/02/09 12:12:57;;;;;;;8.13;7.43;;;;;;;;;;2047286;28;20202;-58
2022/02/09 12:14:18;;;;;;;8.48;7.75;;;;;;;;;;2047005;28;20190;-58
2022/02/09 12:15:45;;;;;;;8.63;7.88;;;;;;;;;;2050262;28;20178;-56
2022/02/09 12:18:53;;;;;;;8.38;7.63;;;;;;;;;;2044907;28;20287;-56
2022/02/09 12:20:03;;;;;;;7.82;7.28;;;;;;;;;;2050427;28;20174;-59
2022/02/09 12:21:15;;;;;;;7.97;7.15;;;;;;;;;;2050087;28;20179;-57
2022/02/09 12:22:17;;;;;;;7.85;7.25;;;;;;;;;;2046005;28;20174;-59
2022/02/09 12:24:28;;;;;;;8.60;7.80;;;;;;;;;;2047043;28;20166;-56
2022/02/09 12:25:42;;;;;;;8.90;7.50;;;;;;;;;;2048134;28;20758;-59
2022/02/09 12:26:59;;;;;;;8.45;7.65;;;;;;;;;;2048360;28;20700;-58
2022/02/09 12:27:59;;;;;;;6.55;5.95;;;;;;;;;;2049512;28;20175;-59